createdAt,value
2022-07-29T00:00:56.000Z,63.47
2022-07-29T00:01:56.000Z,63.17
2022-07-29T00:02:56.000Z,62.96
2022-07-29T00:03:56.000Z,63.07
2022-07-29T00:04:56.000Z,63.07
2022-07-29T00:05:56.000Z,62.96
2022-07-29T00:06:56.000Z,63.07
2022-07-29T00:07:56.000Z,63.17
2022-07-29T00:08:56.000Z,63.07
2022-07-29T00:09:56.000Z,63.07
2022-07-29T00:10:56.000Z,63.07
2022-07-29T00:11:56.000Z,63.17
2022-07-29T00:12:56.000Z,63.17
2022-07-29T00:13:56.000Z,63.17
2022-07-29T00:14:56.000Z,63.13
2022-07-29T00:15:56.000Z,63.27
2022-07-29T00:16:56.000Z,63.07
2022-07-29T00:17:56.000Z,63.37
2022-07-29T00:18:56.000Z,63.07
2022-07-29T00:19:56.000Z,63.37
2022-07-29T00:20:56.000Z,63.07
2022-07-29T00:21:56.000Z,63.07
2022-07-29T00:22:56.000Z,62.96
2022-07-29T00:23:56.000Z,62.96
2022-07-29T00:24:56.000Z,62.84
2022-07-29T00:25:56.000Z,62.96
2022-07-29T00:26:56.000Z,62.93
2022-07-29T00:27:56.000Z,62.84
2022-07-29T00:28:56.000Z,62.93
2022-07-29T00:29:56.000Z,62.73
2022-07-29T00:30:56.000Z,62.93
2022-07-29T00:31:56.000Z,62.84
2022-07-29T00:32:56.000Z,62.73
2022-07-29T00:33:56.000Z,62.84
2022-07-29T00:34:56.000Z,62.84
2022-07-29T00:35:56.000Z,62.73
2022-07-29T00:36:56.000Z,62.73
2022-07-29T00:37:56.000Z,62.53
2022-07-29T00:38:56.000Z,62.63
2022-07-29T00:39:56.000Z,62.53
2022-07-29T00:40:56.000Z,62.53
2022-07-29T00:41:57.000Z,62.53
2022-07-29T00:42:57.000Z,62.53
2022-07-29T00:43:57.000Z,62.53
2022-07-29T00:44:57.000Z,62.63
2022-07-29T00:45:57.000Z,62.63
2022-07-29T00:46:57.000Z,62.63
2022-07-29T00:47:57.000Z,62.73
2022-07-29T00:48:57.000Z,62.53
2022-07-29T00:49:57.000Z,62.53
2022-07-29T00:50:57.000Z,62.63
2022-07-29T00:51:57.000Z,62.63
2022-07-29T00:52:57.000Z,62.73
2022-07-29T00:53:57.000Z,62.63
2022-07-29T00:54:57.000Z,62.53
2022-07-29T00:55:57.000Z,62.53
2022-07-29T00:56:57.000Z,62.43
2022-07-29T00:57:57.000Z,62.53
2022-07-29T00:58:57.000Z,62.53
2022-07-29T00:59:57.000Z,62.53
2022-07-29T01:00:57.000Z,62.43
2022-07-29T01:01:57.000Z,62.63
2022-07-29T01:02:57.000Z,62.73
2022-07-29T01:03:57.000Z,62.73
2022-07-29T01:04:57.000Z,62.73
2022-07-29T01:05:57.000Z,62.93
2022-07-29T01:06:57.000Z,62.84
2022-07-29T01:07:57.000Z,62.84
2022-07-29T01:08:57.000Z,62.93
2022-07-29T01:09:57.000Z,63.04
2022-07-29T01:10:57.000Z,63.04
2022-07-29T01:11:57.000Z,63.13
2022-07-29T01:12:57.000Z,63.27
2022-07-29T01:13:57.000Z,63.47
2022-07-29T01:14:57.000Z,63.27
2022-07-29T01:15:57.000Z,63.17
2022-07-29T01:16:57.000Z,63.27
2022-07-29T01:17:57.000Z,63.27
2022-07-29T01:18:57.000Z,63.27
2022-07-29T01:19:57.000Z,63.47
2022-07-29T01:20:57.000Z,63.67
2022-07-29T01:21:57.000Z,63.37
2022-07-29T01:22:57.000Z,63.37
2022-07-29T01:23:57.000Z,63.27
2022-07-29T01:24:57.000Z,63.47
2022-07-29T01:25:57.000Z,63.47
2022-07-29T01:26:57.000Z,63.37
2022-07-29T01:27:57.000Z,63.37
2022-07-29T01:28:57.000Z,63.27
2022-07-29T01:29:57.000Z,63.37
2022-07-29T01:30:57.000Z,63.47
2022-07-29T01:31:58.000Z,63.17
2022-07-29T01:32:58.000Z,63.17
2022-07-29T01:33:58.000Z,63.27
2022-07-29T01:34:58.000Z,63.37
2022-07-29T01:35:58.000Z,63.17
2022-07-29T01:36:58.000Z,63.27
2022-07-29T01:37:58.000Z,63.27
2022-07-29T01:38:58.000Z,63.07
2022-07-29T01:39:58.000Z,63.07
2022-07-29T01:40:58.000Z,63.67
2022-07-29T01:41:58.000Z,63.37
2022-07-29T01:42:58.000Z,63.17
2022-07-29T01:43:58.000Z,62.96
2022-07-29T01:44:58.000Z,63.17
2022-07-29T01:45:58.000Z,62.96
2022-07-29T01:46:58.000Z,63.17
2022-07-29T01:47:58.000Z,63.07
2022-07-29T01:48:58.000Z,63.07
2022-07-29T01:49:58.000Z,63.07
2022-07-29T01:50:58.000Z,63.37
2022-07-29T01:51:58.000Z,63.27
2022-07-29T01:52:58.000Z,63.27
2022-07-29T01:53:58.000Z,62.96
2022-07-29T01:54:58.000Z,63.07
2022-07-29T01:55:58.000Z,63.17
2022-07-29T01:56:58.000Z,63.17
2022-07-29T01:57:58.000Z,63.07
2022-07-29T01:58:58.000Z,63.27
2022-07-29T01:59:58.000Z,62.86
2022-07-29T02:00:58.000Z,62.96
2022-07-29T02:01:58.000Z,63.07
2022-07-29T02:02:58.000Z,63.47
2022-07-29T02:03:58.000Z,63.04
2022-07-29T02:04:58.000Z,63.47
2022-07-29T02:05:58.000Z,63.27
2022-07-29T02:06:58.000Z,63.17
2022-07-29T02:07:58.000Z,63.47
2022-07-29T02:08:58.000Z,63.27
2022-07-29T02:09:58.000Z,63.27
2022-07-29T02:10:58.000Z,63.17
2022-07-29T02:11:58.000Z,63.27
2022-07-29T02:12:58.000Z,63.17
2022-07-29T02:13:58.000Z,63.37
2022-07-29T02:14:58.000Z,63.67
2022-07-29T02:15:58.000Z,63.78
2022-07-29T02:16:58.000Z,63.27
2022-07-29T02:17:58.000Z,63.37
2022-07-29T02:18:58.000Z,63.07
2022-07-29T02:19:58.000Z,63.37
2022-07-29T02:19:58.000Z,63.37
2022-07-29T02:20:59.000Z,63.17
2022-07-29T02:20:59.000Z,63.17
2022-07-29T02:21:59.000Z,63.37
2022-07-29T02:21:59.000Z,63.37
2022-07-29T02:22:59.000Z,63.37
2022-07-29T02:22:59.000Z,63.37
2022-07-29T02:23:59.000Z,63.07
2022-07-29T02:23:59.000Z,63.07
2022-07-29T02:24:59.000Z,63.07
2022-07-29T02:25:59.000Z,63.27
2022-07-29T02:26:59.000Z,63.67
2022-07-29T02:27:59.000Z,63.67
2022-07-29T02:28:59.000Z,63.37
2022-07-29T02:29:59.000Z,63.47
2022-07-29T02:30:59.000Z,63.47
2022-07-29T02:31:59.000Z,63.57
2022-07-29T02:32:59.000Z,63.57
2022-07-29T02:33:59.000Z,63.67
2022-07-29T02:34:59.000Z,63.67
2022-07-29T02:35:59.000Z,63.57
2022-07-29T02:36:59.000Z,63.67
2022-07-29T02:37:59.000Z,63.78
2022-07-29T02:38:59.000Z,63.78
2022-07-29T02:39:59.000Z,63.87
2022-07-29T02:40:59.000Z,63.87
2022-07-29T02:41:59.000Z,63.87
2022-07-29T02:42:59.000Z,63.98
2022-07-29T02:43:59.000Z,63.98
2022-07-29T02:44:59.000Z,64.18
2022-07-29T02:45:59.000Z,64.48
2022-07-29T02:46:59.000Z,64.28
2022-07-29T02:47:59.000Z,64.21
2022-07-29T02:48:59.000Z,64.38
2022-07-29T02:49:59.000Z,64.51
2022-07-29T02:50:59.000Z,64.82
2022-07-29T02:51:59.000Z,64.82
2022-07-29T02:52:59.000Z,64.61
2022-07-29T02:53:59.000Z,64.82
2022-07-29T02:54:59.000Z,64.31
2022-07-29T02:55:59.000Z,64.41
2022-07-29T02:56:59.000Z,64.31
2022-07-29T02:57:59.000Z,64.41
2022-07-29T02:58:59.000Z,64.41
2022-07-29T02:59:59.000Z,64.51
2022-07-29T03:00:59.000Z,64.21
2022-07-29T03:01:59.000Z,64.21
2022-07-29T03:02:59.000Z,64.31
2022-07-29T03:03:59.000Z,64.51
2022-07-29T03:04:59.000Z,64.41
2022-07-29T03:05:59.000Z,64.61
2022-07-29T03:06:59.000Z,64.51
2022-07-29T03:07:59.000Z,64.72
2022-07-29T03:08:59.000Z,64.82
2022-07-29T03:09:59.000Z,64.92
2022-07-29T03:10:59.000Z,64.92
2022-07-29T03:11:59.000Z,64.72
2022-07-29T03:12:59.000Z,64.82
2022-07-29T03:13:59.000Z,64.72
2022-07-29T03:14:59.000Z,64.82
2022-07-29T03:15:59.000Z,64.61
2022-07-29T03:16:59.000Z,64.82
2022-07-29T03:17:59.000Z,64.82
2022-07-29T03:18:59.000Z,64.92
2022-07-29T03:31:35.000Z,65.05
2022-07-29T03:31:35.000Z,65.15
2022-07-29T03:32:35.000Z,65.15
2022-07-29T03:33:35.000Z,65.25
2022-07-29T03:34:35.000Z,65.15
2022-07-29T03:35:35.000Z,65.25
2022-07-29T03:36:35.000Z,65.36
2022-07-29T03:37:35.000Z,65.25
2022-07-29T03:38:35.000Z,65.45
2022-07-29T03:39:35.000Z,65.36
2022-07-29T03:40:35.000Z,65.56
2022-07-29T03:41:35.000Z,65.45
2022-07-29T03:42:35.000Z,65.36
2022-07-29T03:43:35.000Z,65.56
2022-07-29T03:44:35.000Z,65.56
2022-07-29T03:45:35.000Z,65.56
2022-07-29T03:46:35.000Z,65.56
2022-07-29T03:47:35.000Z,65.66
2022-07-29T03:48:35.000Z,65.56
2022-07-29T03:49:35.000Z,65.66
2022-07-29T03:50:35.000Z,65.66
2022-07-29T03:51:35.000Z,65.66
2022-07-29T03:52:35.000Z,65.89
2022-07-29T03:53:35.000Z,65.76
2022-07-29T03:54:35.000Z,65.96
2022-07-29T03:55:35.000Z,65.96
2022-07-29T03:56:35.000Z,66.30
2022-07-29T03:57:35.000Z,66.19
2022-07-29T03:58:35.000Z,65.99
2022-07-29T03:59:35.000Z,65.99
2022-07-29T04:00:35.000Z,65.89
2022-07-29T04:01:35.000Z,66.09
2022-07-29T04:02:35.000Z,66.19
2022-07-29T04:03:35.000Z,66.60
2022-07-29T04:04:35.000Z,66.50
2022-07-29T04:05:35.000Z,65.99
2022-07-29T04:06:35.000Z,66.09
2022-07-29T04:07:35.000Z,66.19
2022-07-29T04:08:35.000Z,66.09
2022-07-29T04:09:35.000Z,66.50
2022-07-29T04:10:35.000Z,66.70
2022-07-29T04:11:35.000Z,66.60
2022-07-29T04:12:35.000Z,66.70
2022-07-29T04:13:35.000Z,66.91
2022-07-29T04:14:35.000Z,67.82
2022-07-29T04:15:35.000Z,67.21
2022-07-29T04:16:35.000Z,67.31
2022-07-29T04:17:35.000Z,67.00
2022-07-29T04:18:35.000Z,67.21
2022-07-29T04:19:35.000Z,67.31
2022-07-29T04:20:35.000Z,66.91
2022-07-29T04:21:35.000Z,66.80
2022-07-29T04:22:35.000Z,66.91
2022-07-29T04:23:35.000Z,67.41
2022-07-29T04:24:35.000Z,67.41
2022-07-29T04:25:35.000Z,67.41
2022-07-29T04:26:35.000Z,67.41
2022-07-29T04:27:35.000Z,67.00
2022-07-29T04:28:35.000Z,66.80
2022-07-29T04:29:35.000Z,67.00
2022-07-29T04:30:35.000Z,67.00
2022-07-29T04:30:35.000Z,67.00
2022-07-29T04:31:35.000Z,67.11
2022-07-29T04:31:35.000Z,67.11
2022-07-29T04:32:35.000Z,66.97
2022-07-29T04:32:35.000Z,66.97
2022-07-29T04:33:35.000Z,66.70
2022-07-29T04:33:35.000Z,66.70
2022-07-29T04:34:35.000Z,66.70
2022-07-29T04:34:35.000Z,66.70
2022-07-29T04:35:35.000Z,66.47
2022-07-29T04:36:35.000Z,66.77
2022-07-29T04:37:35.000Z,66.80
2022-07-29T04:38:35.000Z,66.77
2022-07-29T04:39:35.000Z,66.47
2022-07-29T04:40:35.000Z,66.67
2022-07-29T04:41:35.000Z,66.47
2022-07-29T04:42:35.000Z,66.47
2022-07-29T04:43:35.000Z,66.57
2022-07-29T04:44:35.000Z,66.37
2022-07-29T04:45:35.000Z,66.37
2022-07-29T04:46:35.000Z,66.27
2022-07-29T04:47:35.000Z,66.37
2022-07-29T04:48:35.000Z,66.77
2022-07-29T04:49:35.000Z,66.37
2022-07-29T04:50:35.000Z,66.16
2022-07-29T04:51:35.000Z,66.27
2022-07-29T04:52:35.000Z,66.13
2022-07-29T04:53:36.000Z,66.74
2022-07-29T04:54:36.000Z,66.13
2022-07-29T04:55:36.000Z,66.44
2022-07-29T04:56:36.000Z,66.84
2022-07-29T04:57:36.000Z,66.13
2022-07-29T04:58:36.000Z,66.13
2022-07-29T04:59:36.000Z,66.13
2022-07-29T05:00:36.000Z,66.33
2022-07-29T05:01:36.000Z,66.44
2022-07-29T05:02:36.000Z,66.33
2022-07-29T05:03:36.000Z,66.03
2022-07-29T05:04:36.000Z,66.13
2022-07-29T05:05:36.000Z,66.13
2022-07-29T05:06:36.000Z,66.20
2022-07-29T05:07:36.000Z,66.30
2022-07-29T05:08:36.000Z,66.00
2022-07-29T05:09:36.000Z,66.71
2022-07-29T05:10:36.000Z,66.10
2022-07-29T05:11:36.000Z,66.41
2022-07-29T05:12:36.000Z,66.00
2022-07-29T05:13:36.000Z,66.20
2022-07-29T05:14:36.000Z,66.07
2022-07-29T05:15:36.000Z,65.87
2022-07-29T05:16:36.000Z,65.56
2022-07-29T05:17:36.000Z,65.56
2022-07-29T05:18:36.000Z,65.36
2022-07-29T05:19:36.000Z,65.26
2022-07-29T05:20:36.000Z,64.55
2022-07-29T05:21:36.000Z,65.26
2022-07-29T05:22:36.000Z,65.16
2022-07-29T05:23:36.000Z,64.73
2022-07-29T05:24:36.000Z,64.93
2022-07-29T05:25:36.000Z,64.22
2022-07-29T05:26:36.000Z,64.42
2022-07-29T05:27:36.000Z,64.02
2022-07-29T05:28:36.000Z,64.93
2022-07-29T05:29:36.000Z,64.79
2022-07-29T05:30:36.000Z,65.00
2022-07-29T05:31:36.000Z,64.49
2022-07-29T05:32:36.000Z,63.99
2022-07-29T05:33:36.000Z,63.89
2022-07-29T05:34:36.000Z,63.68
2022-07-29T05:35:36.000Z,63.68
2022-07-29T05:36:36.000Z,63.68
2022-07-29T05:37:36.000Z,63.28
2022-07-29T05:38:36.000Z,63.58
2022-07-29T05:39:36.000Z,62.74
2022-07-29T05:40:36.000Z,62.85
2022-07-29T05:40:36.000Z,62.85
2022-07-29T05:41:36.000Z,62.95
2022-07-29T05:41:36.000Z,62.95
2022-07-29T05:42:36.000Z,63.35
2022-07-29T05:42:36.000Z,63.35
2022-07-29T05:43:36.000Z,63.35
2022-07-29T05:43:36.000Z,63.35
2022-07-29T05:44:36.000Z,64.06
2022-07-29T05:44:36.000Z,64.06
2022-07-29T05:45:36.000Z,63.25
2022-07-29T05:46:36.000Z,63.22
2022-07-29T05:47:36.000Z,62.51
2022-07-29T05:48:36.000Z,62.71
2022-07-29T05:49:36.000Z,62.62
2022-07-29T05:50:36.000Z,62.31
2022-07-29T05:51:36.000Z,62.21
2022-07-29T05:52:36.000Z,63.02
2022-07-29T05:53:36.000Z,63.12
2022-07-29T05:54:36.000Z,62.71
2022-07-29T05:55:36.000Z,62.59
2022-07-29T05:56:36.000Z,63.09
2022-07-29T05:57:36.000Z,61.27
2022-07-29T05:58:36.000Z,61.37
2022-07-29T05:59:36.000Z,61.47
2022-07-29T06:00:36.000Z,61.37
2022-07-29T06:01:36.000Z,61.77
2022-07-29T06:02:35.000Z,61.88
2022-07-29T06:03:35.000Z,60.87
2022-07-29T06:04:35.000Z,60.97
2022-07-29T06:05:35.000Z,61.47
2022-07-29T06:06:35.000Z,62.18
2022-07-29T06:07:35.000Z,62.59
2022-07-29T06:08:35.000Z,61.47
2022-07-29T06:09:35.000Z,61.17
2022-07-29T06:10:35.000Z,60.94
2022-07-29T06:11:35.000Z,61.68
2022-07-29T06:12:35.000Z,61.24
2022-07-29T06:13:35.000Z,60.94
2022-07-29T06:14:35.000Z,60.77
2022-07-29T06:15:35.000Z,60.94
2022-07-29T06:16:35.000Z,61.44
2022-07-29T06:17:35.000Z,61.85
2022-07-29T06:18:35.000Z,61.85
2022-07-29T06:19:35.000Z,61.55
2022-07-29T06:20:35.000Z,61.35
2022-07-29T06:21:35.000Z,61.75
2022-07-29T06:22:35.000Z,61.04
2022-07-29T06:23:35.000Z,61.24
2022-07-29T06:24:35.000Z,60.33
2022-07-29T06:25:35.000Z,60.71
2022-07-29T06:26:35.000Z,60.10
2022-07-29T06:27:35.000Z,59.70
2022-07-29T06:28:35.000Z,59.50
2022-07-29T06:29:35.000Z,59.50
2022-07-29T06:30:35.000Z,59.09
2022-07-29T06:30:35.000Z,59.09
2022-07-29T06:31:35.000Z,58.69
2022-07-29T06:31:35.000Z,58.69
2022-07-29T06:32:35.000Z,58.69
2022-07-29T06:32:35.000Z,58.69
2022-07-29T06:33:35.000Z,59.40
2022-07-29T06:33:35.000Z,59.40
2022-07-29T06:34:35.000Z,58.36
2022-07-29T06:34:35.000Z,58.36
2022-07-29T06:35:35.000Z,59.07
2022-07-29T06:36:35.000Z,58.47
2022-07-29T06:37:35.000Z,57.86
2022-07-29T06:38:35.000Z,57.96
2022-07-29T06:39:35.000Z,58.36
2022-07-29T06:40:35.000Z,58.67
2022-07-29T06:41:35.000Z,58.44
2022-07-29T06:42:35.000Z,57.63
2022-07-29T06:43:35.000Z,58.14
2022-07-29T06:44:35.000Z,58.54
2022-07-29T06:45:35.000Z,58.03
2022-07-29T06:46:35.000Z,57.90
2022-07-29T06:47:35.000Z,58.11
2022-07-29T06:48:35.000Z,58.41
2022-07-29T06:49:35.000Z,57.81
2022-07-29T06:50:35.000Z,57.30
2022-07-29T06:51:35.000Z,57.37
2022-07-29T06:52:35.000Z,57.88
2022-07-29T06:53:35.000Z,57.07
2022-07-29T06:54:35.000Z,58.18
2022-07-29T06:55:35.000Z,57.75
2022-07-29T06:56:35.000Z,56.04
2022-07-29T06:57:35.000Z,56.44
2022-07-29T06:58:35.000Z,57.22
2022-07-29T06:59:35.000Z,55.71
2022-07-29T07:00:35.000Z,55.41
2022-07-29T07:01:35.000Z,56.41
2022-07-29T07:02:35.000Z,56.62
2022-07-29T07:03:35.000Z,55.38
2022-07-29T07:04:35.000Z,54.28
2022-07-29T07:05:35.000Z,54.38
2022-07-29T07:06:35.000Z,56.09
2022-07-29T07:07:35.000Z,56.76
2022-07-29T07:08:35.000Z,55.96
2022-07-29T07:09:35.000Z,54.22
2022-07-29T07:10:35.000Z,53.42
2022-07-29T07:11:35.000Z,52.82
2022-07-29T07:12:35.000Z,52.62
2022-07-29T07:13:34.000Z,52.80
2022-07-29T07:14:34.000Z,53.70
2022-07-29T07:15:34.000Z,54.10
2022-07-29T07:16:34.000Z,52.37
2022-07-29T07:17:34.000Z,52.77
2022-07-29T07:18:34.000Z,53.17
2022-07-29T07:19:34.000Z,51.74
2022-07-29T07:20:34.000Z,52.64
2022-07-29T07:21:34.000Z,51.94
2022-07-29T07:22:34.000Z,52.12
2022-07-29T07:23:34.000Z,50.81
2022-07-29T07:24:34.000Z,50.84
2022-07-29T07:25:34.000Z,51.64
2022-07-29T07:26:34.000Z,52.55
2022-07-29T07:27:34.000Z,53.12
2022-07-29T07:28:34.000Z,50.51
2022-07-29T07:29:34.000Z,51.32
2022-07-29T07:30:34.000Z,52.32
2022-07-29T07:31:34.000Z,50.62
2022-07-29T07:32:34.000Z,50.71
2022-07-29T07:33:34.000Z,52.12
2022-07-29T07:34:34.000Z,50.29
2022-07-29T07:35:34.000Z,50.69
2022-07-29T07:36:34.000Z,50.69
2022-07-29T07:37:34.000Z,50.49
2022-07-29T07:38:34.000Z,50.69
2022-07-29T07:39:34.000Z,50.49
2022-07-29T07:40:34.000Z,50.89
2022-07-29T07:41:34.000Z,50.19
2022-07-29T07:42:34.000Z,51.79
2022-07-29T07:43:34.000Z,50.07
2022-07-29T07:44:34.000Z,50.67
2022-07-29T07:45:34.000Z,50.26
2022-07-29T07:46:34.000Z,50.16
2022-07-29T07:47:34.000Z,50.26
2022-07-29T07:48:33.000Z,50.24
2022-07-29T07:49:33.000Z,50.04
2022-07-29T07:50:33.000Z,49.74
2022-07-29T07:50:33.000Z,49.74
2022-07-29T07:51:33.000Z,50.84
2022-07-29T07:51:33.000Z,50.84
2022-07-29T07:52:33.000Z,49.44
2022-07-29T07:52:33.000Z,49.44
2022-07-29T07:53:33.000Z,50.42
2022-07-29T07:53:33.000Z,50.42
2022-07-29T07:54:33.000Z,49.41
2022-07-29T07:54:33.000Z,49.41
2022-07-29T07:55:33.000Z,48.02
2022-07-29T07:56:33.000Z,48.61
2022-07-29T07:57:33.000Z,49.24
2022-07-29T07:58:33.000Z,48.84
2022-07-29T07:59:33.000Z,48.94
2022-07-29T08:00:33.000Z,49.04
2022-07-29T08:01:33.000Z,49.02
2022-07-29T08:02:33.000Z,49.22
2022-07-29T08:03:33.000Z,49.02
2022-07-29T08:04:33.000Z,49.41
2022-07-29T08:05:33.000Z,48.52
2022-07-29T08:06:33.000Z,48.32
2022-07-29T08:07:33.000Z,49.02
2022-07-29T08:08:33.000Z,50.52
2022-07-29T08:09:33.000Z,48.10
2022-07-29T08:10:33.000Z,48.29
2022-07-29T08:11:33.000Z,48.79
2022-07-29T08:12:33.000Z,48.29
2022-07-29T08:13:32.000Z,48.17
2022-07-29T08:14:32.000Z,48.97
2022-07-29T08:15:32.000Z,47.77
2022-07-29T08:16:32.000Z,47.67
2022-07-29T08:17:32.000Z,48.67
2022-07-29T08:18:32.000Z,47.77
2022-07-29T08:19:32.000Z,47.75
2022-07-29T08:20:32.000Z,47.55
2022-07-29T08:21:32.000Z,46.95
2022-07-29T08:22:32.000Z,47.22
2022-07-29T08:23:32.000Z,48.32
2022-07-29T08:24:32.000Z,46.91
2022-07-29T08:25:32.000Z,46.70
2022-07-29T08:26:32.000Z,46.91
2022-07-29T08:27:32.000Z,46.98
2022-07-29T08:28:32.000Z,47.28
2022-07-29T08:29:32.000Z,46.98
2022-07-29T08:30:32.000Z,45.68
2022-07-29T08:31:32.000Z,46.06
2022-07-29T08:32:32.000Z,45.47
2022-07-29T08:33:32.000Z,45.86
2022-07-29T08:34:31.000Z,46.56
2022-07-29T08:35:31.000Z,46.66
2022-07-29T08:36:31.000Z,45.54
2022-07-29T08:37:31.000Z,45.94
2022-07-29T08:38:31.000Z,45.34
2022-07-29T08:39:31.000Z,46.42
2022-07-29T08:40:31.000Z,45.42
2022-07-29T08:40:31.000Z,45.42
2022-07-29T08:41:31.000Z,44.72
2022-07-29T08:41:31.000Z,44.72
2022-07-29T08:42:31.000Z,45.62
2022-07-29T08:42:31.000Z,45.62
2022-07-29T08:43:31.000Z,45.42
2022-07-29T08:43:31.000Z,45.42
2022-07-29T08:44:31.000Z,45.02
2022-07-29T08:44:31.000Z,45.02
2022-07-29T08:45:31.000Z,44.80
2022-07-29T08:46:31.000Z,43.80
2022-07-29T08:47:31.000Z,44.90
2022-07-29T08:48:31.000Z,45.60
2022-07-29T08:49:31.000Z,44.50
2022-07-29T08:50:31.000Z,44.20
2022-07-29T08:51:31.000Z,44.40
2022-07-29T08:52:30.000Z,44.01
2022-07-29T08:53:30.000Z,45.10
2022-07-29T08:54:30.000Z,44.40
2022-07-29T08:55:30.000Z,43.90
2022-07-29T08:56:30.000Z,44.60
2022-07-29T08:57:30.000Z,45.10
2022-07-29T08:58:30.000Z,44.40
2022-07-29T08:59:30.000Z,43.80
2022-07-29T09:00:30.000Z,44.70
2022-07-29T09:01:30.000Z,44.20
2022-07-29T09:02:30.000Z,45.20
2022-07-29T09:03:30.000Z,44.50
2022-07-29T09:04:30.000Z,45.79
2022-07-29T09:05:30.000Z,45.40
2022-07-29T09:06:30.000Z,44.38
2022-07-29T09:07:30.000Z,43.68
2022-07-29T09:08:30.000Z,44.28
2022-07-29T09:09:29.000Z,45.48
2022-07-29T09:10:29.000Z,44.58
2022-07-29T09:11:29.000Z,43.66
2022-07-29T09:12:29.000Z,43.37
2022-07-29T09:13:29.000Z,44.66
2022-07-29T09:14:29.000Z,44.68
2022-07-29T09:15:29.000Z,44.48
2022-07-29T09:16:29.000Z,43.68
2022-07-29T09:17:29.000Z,45.57
2022-07-29T09:18:29.000Z,43.88
2022-07-29T09:19:29.000Z,45.18
2022-07-29T09:20:29.000Z,44.58
2022-07-29T09:21:29.000Z,44.38
2022-07-29T09:22:29.000Z,43.57
2022-07-29T09:23:29.000Z,43.07
2022-07-29T09:24:29.000Z,43.57
2022-07-29T09:25:28.000Z,44.26
2022-07-29T09:26:28.000Z,42.94
2022-07-29T09:27:28.000Z,42.94
2022-07-29T09:28:28.000Z,42.75
2022-07-29T09:29:28.000Z,44.04
2022-07-29T09:30:28.000Z,42.85
2022-07-29T09:31:28.000Z,42.53
2022-07-29T09:32:28.000Z,42.13
2022-07-29T09:33:28.000Z,43.02
2022-07-29T09:34:28.000Z,41.93
2022-07-29T09:35:28.000Z,43.01
2022-07-29T09:36:28.000Z,42.61
2022-07-29T09:37:28.000Z,42.71
2022-07-29T09:38:28.000Z,42.80
2022-07-29T09:39:28.000Z,42.61
2022-07-29T09:40:28.000Z,42.61
2022-07-29T09:41:27.000Z,41.89
2022-07-29T09:42:27.000Z,41.89
2022-07-29T09:43:27.000Z,41.99
2022-07-29T09:44:27.000Z,41.79
2022-07-29T09:45:27.000Z,41.89
2022-07-29T09:46:27.000Z,44.07
2022-07-29T09:47:27.000Z,42.29
2022-07-29T09:48:27.000Z,41.47
2022-07-29T09:49:27.000Z,40.78
2022-07-29T09:50:27.000Z,40.88
2022-07-29T09:51:27.000Z,40.88
2022-07-29T09:52:27.000Z,40.38
2022-07-29T09:53:27.000Z,40.48
2022-07-29T09:54:27.000Z,40.68
2022-07-29T09:55:26.000Z,41.28
2022-07-29T09:56:26.000Z,41.97
2022-07-29T09:57:26.000Z,41.77
2022-07-29T09:58:26.000Z,40.88
2022-07-29T09:59:26.000Z,41.28
2022-07-29T10:00:26.000Z,40.38
2022-07-29T10:01:26.000Z,40.88
2022-07-29T10:02:26.000Z,40.88
2022-07-29T10:03:26.000Z,40.86
2022-07-29T10:04:26.000Z,40.86
2022-07-29T10:05:26.000Z,41.17
2022-07-29T10:06:26.000Z,41.66
2022-07-29T10:07:26.000Z,40.36
2022-07-29T10:08:26.000Z,40.47
2022-07-29T10:09:25.000Z,40.26
2022-07-29T10:10:25.000Z,40.07
2022-07-29T10:11:25.000Z,39.97
2022-07-29T10:12:25.000Z,40.36
2022-07-29T10:13:25.000Z,39.97
2022-07-29T10:14:25.000Z,39.77
2022-07-29T10:15:25.000Z,39.47
2022-07-29T10:16:25.000Z,40.17
2022-07-29T10:17:25.000Z,40.66
2022-07-29T10:18:25.000Z,40.07
2022-07-29T10:19:25.000Z,40.17
2022-07-29T10:20:25.000Z,39.87
2022-07-29T10:21:25.000Z,39.87
2022-07-29T10:22:25.000Z,39.25
2022-07-29T10:23:24.000Z,39.55
2022-07-29T10:24:24.000Z,39.23
2022-07-29T10:25:24.000Z,38.44
2022-07-29T10:26:24.000Z,38.24
2022-07-29T10:27:24.000Z,38.34
2022-07-29T10:28:24.000Z,39.43
2022-07-29T10:29:24.000Z,39.14
2022-07-29T10:30:24.000Z,38.74
2022-07-29T10:31:24.000Z,39.22
2022-07-29T10:32:24.000Z,38.42
2022-07-29T10:33:24.000Z,39.93
2022-07-29T10:34:24.000Z,38.94
2022-07-29T10:35:23.000Z,39.02
2022-07-29T10:36:23.000Z,38.92
2022-07-29T10:37:23.000Z,38.62
2022-07-29T10:38:23.000Z,38.82
2022-07-29T10:39:23.000Z,38.42
2022-07-29T10:40:23.000Z,38.62
2022-07-29T10:41:23.000Z,37.63
2022-07-29T10:42:23.000Z,38.23
2022-07-29T10:43:23.000Z,37.22
2022-07-29T10:44:23.000Z,36.64
2022-07-29T10:45:23.000Z,38.13
2022-07-29T10:46:23.000Z,38.62
2022-07-29T10:47:23.000Z,38.03
2022-07-29T10:48:22.000Z,38.51
2022-07-29T10:49:22.000Z,38.21
2022-07-29T10:50:22.000Z,37.62
2022-07-29T10:51:22.000Z,38.90
2022-07-29T10:52:22.000Z,37.51
2022-07-29T10:53:22.000Z,36.61
2022-07-29T10:54:22.000Z,37.18
2022-07-29T10:55:22.000Z,36.39
2022-07-29T10:56:22.000Z,36.69
2022-07-29T10:57:22.000Z,35.58
2022-07-29T10:58:22.000Z,35.98
2022-07-29T10:59:21.000Z,35.49
2022-07-29T11:00:21.000Z,34.89
2022-07-29T11:00:21.000Z,34.89
2022-07-29T11:01:21.000Z,35.88
2022-07-29T11:01:21.000Z,35.88
2022-07-29T11:02:21.000Z,35.19
2022-07-29T11:02:21.000Z,35.19
2022-07-29T11:03:21.000Z,35.68
2022-07-29T11:03:21.000Z,35.68
2022-07-29T11:04:21.000Z,36.18
2022-07-29T11:04:21.000Z,36.18
2022-07-29T11:05:21.000Z,34.89
2022-07-29T11:06:21.000Z,35.40
2022-07-29T11:07:21.000Z,34.22
2022-07-29T11:08:21.000Z,33.52
2022-07-29T11:09:21.000Z,33.72
2022-07-29T11:10:20.000Z,35.30
2022-07-29T11:11:20.000Z,35.89
2022-07-29T11:12:20.000Z,33.31
2022-07-29T11:13:20.000Z,34.22
2022-07-29T11:14:20.000Z,35.38
2022-07-29T11:15:20.000Z,34.22
2022-07-29T11:16:20.000Z,34.01
2022-07-29T11:17:20.000Z,34.81
2022-07-29T11:18:20.000Z,35.11
2022-07-29T11:19:20.000Z,35.30
2022-07-29T11:20:20.000Z,34.69
2022-07-29T11:20:20.000Z,34.69
2022-07-29T11:21:20.000Z,35.68
2022-07-29T11:21:20.000Z,35.68
2022-07-29T11:22:19.000Z,34.10
2022-07-29T11:22:19.000Z,34.10
2022-07-29T11:23:19.000Z,34.20
2022-07-29T11:23:19.000Z,34.20
2022-07-29T11:24:19.000Z,33.80
2022-07-29T11:24:19.000Z,33.80
2022-07-29T11:25:19.000Z,34.00
2022-07-29T11:26:19.000Z,34.30
2022-07-29T11:27:19.000Z,34.10
2022-07-29T11:28:19.000Z,34.69
2022-07-29T11:29:19.000Z,34.18
2022-07-29T11:30:19.000Z,35.66
2022-07-29T11:30:19.000Z,35.66
2022-07-29T11:31:19.000Z,34.28
2022-07-29T11:31:19.000Z,34.28
2022-07-29T11:32:19.000Z,35.76
2022-07-29T11:32:19.000Z,35.76
2022-07-29T11:33:18.000Z,35.37
2022-07-29T11:33:18.000Z,35.37
2022-07-29T11:34:18.000Z,33.29
2022-07-29T11:34:18.000Z,33.29
2022-07-29T11:35:18.000Z,33.59
2022-07-29T11:36:18.000Z,33.79
2022-07-29T11:37:18.000Z,33.89
2022-07-29T11:38:18.000Z,34.08
2022-07-29T11:39:18.000Z,34.97
2022-07-29T11:40:18.000Z,34.28
2022-07-29T11:40:18.000Z,34.28
2022-07-29T11:41:18.000Z,33.61
2022-07-29T11:41:18.000Z,33.61
2022-07-29T11:42:18.000Z,34.10
2022-07-29T11:42:18.000Z,34.10
2022-07-29T11:43:18.000Z,35.09
2022-07-29T11:43:18.000Z,35.09
2022-07-29T11:44:17.000Z,35.17
2022-07-29T11:44:17.000Z,35.17
2022-07-29T11:45:17.000Z,34.78
2022-07-29T11:46:17.000Z,34.88
2022-07-29T11:47:17.000Z,33.49
2022-07-29T11:48:17.000Z,34.36
2022-07-29T11:49:17.000Z,33.47
2022-07-29T11:50:17.000Z,34.17
2022-07-29T11:50:17.000Z,34.17
2022-07-29T11:51:17.000Z,33.77
2022-07-29T11:51:17.000Z,33.77
2022-07-29T11:52:17.000Z,35.45
2022-07-29T11:52:17.000Z,35.45
2022-07-29T11:53:17.000Z,34.05
2022-07-29T11:53:17.000Z,34.05
2022-07-29T11:54:17.000Z,33.65
2022-07-29T11:54:17.000Z,33.65
2022-07-29T11:55:16.000Z,33.36
2022-07-29T11:56:16.000Z,32.98
2022-07-29T11:57:16.000Z,31.90
2022-07-29T11:58:16.000Z,32.59
2022-07-29T11:59:16.000Z,32.29
2022-07-29T12:00:16.000Z,32.19
2022-07-29T12:00:16.000Z,32.19
2022-07-29T12:00:16.000Z,32.19
2022-07-29T12:01:16.000Z,32.78
2022-07-29T12:01:16.000Z,32.78
2022-07-29T12:01:16.000Z,32.78
2022-07-29T12:02:16.000Z,33.18
2022-07-29T12:02:16.000Z,33.18
2022-07-29T12:02:16.000Z,33.18